KOFF

Offutt AFB Airport

Omaha, Nebraska, USA
METAR KOFF 200056Z AUTO 00000KT 10SM CLR 02/M02 A2972 RMK AO2 SLP080 T00161020 $
Observed Flight Rules
Jan-20 @ 00:56 UTC (29 minutes ago) Visual Flight Rules
Wind Visibility Clouds
Calm 10 miles
  • Clear skies
Temperatures Readings
Current 2°C / 36°F
Dewpoint -2°C / 28°F
Humidity 75%
Altimeter 29.72" Hg
Pressure 1008 hPa
Elevation 319
METAR KOFF 200056Z AUTO 00000KT 10SM CLR 02/M02 A2972 RMK AO2 SLP080 T00161020 $
Observed Flight Rules
Jan-20 @ 00:56 UTC
(29 minutes ago)
VFR
Wind Visibility
Calm 10 miles
Clouds
  • Clear skies
Temperature Dewpoint
2°C / 36°F -2°C / 28°F
Humidity Altimeter Pressure
75% 29.72" Hg 1008 hPa